sensor_id;sensor_type;location;lat;lon;timestamp;temperature;humidity
44695;DHT22;32845;59.422;17.930;2023-04-01T00:03:57;-4.40;99.90
44695;DHT22;32845;59.422;17.930;2023-04-01T00:08:29;-4.50;99.90
44695;DHT22;32845;59.422;17.930;2023-04-01T00:12:59;-4.50;99.90
44695;DHT22;32845;59.422;17.930;2023-04-01T00:17:30;-4.60;99.90
44695;DHT22;32845;59.422;17.930;2023-04-01T00:22:01;-4.70;99.90
44695;DHT22;32845;59.422;17.930;2023-04-01T00:26:32;-4.70;99.90
44695;DHT22;32845;59.422;17.930;2023-04-01T00:31:07;-4.70;99.90
44695;DHT22;32845;59.422;17.930;2023-04-01T00:35:38;-4.60;99.90
44695;DHT22;32845;59.422;17.930;2023-04-01T00:40:32;-4.50;99.90
44695;DHT22;32845;59.422;17.930;2023-04-01T00:45:42;-4.50;99.90
44695;DHT22;32845;59.422;17.930;2023-04-01T00:50:13;-4.40;99.90
44695;DHT22;32845;59.422;17.930;2023-04-01T00:54:47;-4.50;99.90
44695;DHT22;32845;59.422;17.930;2023-04-01T00:59:23;-4.60;99.90
44695;DHT22;32845;59.422;17.930;2023-04-01T01:03:55;-4.70;99.90
44695;DHT22;32845;59.422;17.930;2023-04-01T01:13:40;-5.00;99.90
44695;DHT22;32845;59.422;17.930;2023-04-01T01:18:35;-5.10;99.90
44695;DHT22;32845;59.422;17.930;2023-04-01T01:37:35;-5.10;99.90
44695;DHT22;32845;59.422;17.930;2023-04-01T01:42:11;-4.90;99.90
44695;DHT22;32845;59.422;17.930;2023-04-01T01:46:44;-4.80;99.90
44695;DHT22;32845;59.422;17.930;2023-04-01T01:51:16;-4.70;99.90
44695;DHT22;32845;59.422;17.930;2023-04-01T01:55:47;-4.70;99.90
44695;DHT22;32845;59.422;17.930;2023-04-01T02:00:19;-4.70;99.90
44695;DHT22;32845;59.422;17.930;2023-04-01T02:04:50;-4.60;99.90
44695;DHT22;32845;59.422;17.930;2023-04-01T02:09:22;-4.60;99.90
44695;DHT22;32845;59.422;17.930;2023-04-01T02:14:01;-4.60;99.90
44695;DHT22;32845;59.422;17.930;2023-04-01T02:18:35;-4.70;99.90
44695;DHT22;32845;59.422;17.930;2023-04-01T02:23:08;-4.60;99.90
44695;DHT22;32845;59.422;17.930;2023-04-01T02:27:43;-4.60;99.90
44695;DHT22;32845;59.422;17.930;2023-04-01T02:32:14;-4.50;99.90
44695;DHT22;32845;59.422;17.930;2023-04-01T02:36:47;-4.50;99.90
44695;DHT22;32845;59.422;17.930;2023-04-01T02:41:18;-4.50;99.90
44695;DHT22;32845;59.422;17.930;2023-04-01T02:45:49;-4.50;99.90
44695;DHT22;32845;59.422;17.930;2023-04-01T02:50:20;-4.40;99.90
44695;DHT22;32845;59.422;17.930;2023-04-01T02:54:50;-4.40;99.90
44695;DHT22;32845;59.422;17.930;2023-04-01T02:59:21;-4.40;99.90
44695;DHT22;32845;59.422;17.930;2023-04-01T03:03:52;-4.40;99.90
44695;DHT22;32845;59.422;17.930;2023-04-01T03:08:22;-4.40;99.90
44695;DHT22;32845;59.422;17.930;2023-04-01T03:12:53;-4.40;99.90
44695;DHT22;32845;59.422;17.930;2023-04-01T03:17:24;-4.30;99.90
44695;DHT22;32845;59.422;17.930;2023-04-01T03:21:54;-4.40;99.90
44695;DHT22;32845;59.422;17.930;2023-04-01T03:26:25;-4.40;99.90
44695;DHT22;32845;59.422;17.930;2023-04-01T03:30:57;-4.30;99.90
44695;DHT22;32845;59.422;17.930;2023-04-01T03:35:28;-4.30;99.90
44695;DHT22;32845;59.422;17.930;2023-04-01T03:39:58;-4.30;99.90
44695;DHT22;32845;59.422;17.930;2023-04-01T03:44:33;-4.30;99.90
44695;DHT22;32845;59.422;17.930;2023-04-01T03:49:07;-4.30;99.90
44695;DHT22;32845;59.422;17.930;2023-04-01T03:53:41;-4.30;99.90
44695;DHT22;32845;59.422;17.930;2023-04-01T03:58:12;-4.30;99.90
44695;DHT22;32845;59.422;17.930;2023-04-01T04:02:44;-4.40;99.90
44695;DHT22;32845;59.422;17.930;2023-04-01T04:07:14;-4.40;99.90
44695;DHT22;32845;59.422;17.930;2023-04-01T04:11:45;-4.60;99.90
44695;DHT22;32845;59.422;17.930;2023-04-01T04:16:17;-4.60;99.90
44695;DHT22;32845;59.422;17.930;2023-04-01T04:20:48;-4.60;99.90
44695;DHT22;32845;59.422;17.930;2023-04-01T04:25:21;-4.60;99.90
44695;DHT22;32845;59.422;17.930;2023-04-01T04:29:52;-4.60;99.90
44695;DHT22;32845;59.422;17.930;2023-04-01T04:34:22;-4.60;99.90
44695;DHT22;32845;59.422;17.930;2023-04-01T04:38:53;-4.60;99.90
44695;DHT22;32845;59.422;17.930;2023-04-01T04:43:24;-4.60;99.90
44695;DHT22;32845;59.422;17.930;2023-04-01T04:47:55;-4.60;99.90
44695;DHT22;32845;59.422;17.930;2023-04-01T04:52:25;-4.60;99.90
44695;DHT22;32845;59.422;17.930;2023-04-01T04:56:56;-4.50;99.90
44695;DHT22;32845;59.422;17.930;2023-04-01T05:01:27;-4.50;99.90
44695;DHT22;32845;59.422;17.930;2023-04-01T05:05:57;-4.50;99.90
44695;DHT22;32845;59.422;17.930;2023-04-01T05:10:28;-4.50;99.90
44695;DHT22;32845;59.422;17.930;2023-04-01T05:14:59;-4.40;99.90
44695;DHT22;32845;59.422;17.930;2023-04-01T05:19:30;-4.30;99.90
44695;DHT22;32845;59.422;17.930;2023-04-01T05:24:01;-4.20;99.90
44695;DHT22;32845;59.422;17.930;2023-04-01T05:28:31;-4.20;99.90
44695;DHT22;32845;59.422;17.930;2023-04-01T05:33:02;-4.10;99.90
44695;DHT22;32845;59.422;17.930;2023-04-01T05:37:34;-4.00;99.90
44695;DHT22;32845;59.422;17.930;2023-04-01T05:42:06;-3.90;99.90
44695;DHT22;32845;59.422;17.930;2023-04-01T05:46:38;-3.80;99.90
44695;DHT22;32845;59.422;17.930;2023-04-01T05:51:13;-3.70;99.90
44695;DHT22;32845;59.422;17.930;2023-04-01T05:55:45;-3.60;99.90
44695;DHT22;32845;59.422;17.930;2023-04-01T06:00:16;-3.50;99.90
44695;DHT22;32845;59.422;17.930;2023-04-01T06:04:47;-3.40;99.90
44695;DHT22;32845;59.422;17.930;2023-04-01T06:09:28;-3.30;99.90
44695;DHT22;32845;59.422;17.930;2023-04-01T06:53:31;-1.90;99.90
44695;DHT22;32845;59.422;17.930;2023-04-01T06:58:09;-1.80;99.90
44695;DHT22;32845;59.422;17.930;2023-04-01T07:02:45;-1.60;99.90
44695;DHT22;32845;59.422;17.930;2023-04-01T07:08:21;-1.50;99.90
44695;DHT22;32845;59.422;17.930;2023-04-01T07:17:29;-1.10;99.90
44695;DHT22;32845;59.422;17.930;2023-04-01T07:22:09;-1.00;99.90
44695;DHT22;32845;59.422;17.930;2023-04-01T07:26:41;-0.80;99.90
44695;DHT22;32845;59.422;17.930;2023-04-01T07:51:17;0.00;99.90
44695;DHT22;32845;59.422;17.930;2023-04-01T07:56:08;0.20;99.90
44695;DHT22;32845;59.422;17.930;2023-04-01T08:05:29;0.50;99.90
44695;DHT22;32845;59.422;17.930;2023-04-01T08:23:58;1.10;99.90
44695;DHT22;32845;59.422;17.930;2023-04-01T08:33:19;1.30;99.90
44695;DHT22;32845;59.422;17.930;2023-04-01T08:37:53;1.50;99.90
44695;DHT22;32845;59.422;17.930;2023-04-01T08:52:36;2.10;99.90
44695;DHT22;32845;59.422;17.930;2023-04-01T09:55:13;4.60;99.90
44695;DHT22;32845;59.422;17.930;2023-04-01T12:11:58;21.50;52.30
44695;DHT22;32845;59.422;17.930;2023-04-01T12:21:42;19.60;52.30
44695;DHT22;32845;59.422;17.930;2023-04-01T12:41:17;15.30;57.80
44695;DHT22;32845;59.422;17.930;2023-04-01T13:28:26;12.60;67.20
44695;DHT22;32845;59.422;17.930;2023-04-01T13:43:00;12.00;66.40
44695;DHT22;32845;59.422;17.930;2023-04-01T14:12:06;10.50;66.70
44695;DHT22;32845;59.422;17.930;2023-04-01T14:17:24;10.10;68.70
44695;DHT22;32845;59.422;17.930;2023-04-01T14:33:02;8.90;70.10
44695;DHT22;32845;59.422;17.930;2023-04-01T14:37:39;8.50;71.00
44695;DHT22;32845;59.422;17.930;2023-04-01T14:47:19;8.20;73.50
44695;DHT22;32845;59.422;17.930;2023-04-01T14:51:54;8.00;71.80
44695;DHT22;32845;59.422;17.930;2023-04-01T14:56:44;7.90;74.40
44695;DHT22;32845;59.422;17.930;2023-04-01T15:21:49;6.90;75.90
44695;DHT22;32845;59.422;17.930;2023-04-01T15:35:49;6.20;78.30
44695;DHT22;32845;59.422;17.930;2023-04-01T15:40:30;6.10;78.50
44695;DHT22;32845;59.422;17.930;2023-04-01T15:45:08;5.90;78.10
44695;DHT22;32845;59.422;17.930;2023-04-01T15:49:50;5.70;79.00
44695;DHT22;32845;59.422;17.930;2023-04-01T16:18:46;5.30;81.60
44695;DHT22;32845;59.422;17.930;2023-04-01T16:23:49;5.10;81.10
44695;DHT22;32845;59.422;17.930;2023-04-01T16:28:48;5.00;81.80
44695;DHT22;32845;59.422;17.930;2023-04-01T16:33:46;4.70;82.90
44695;DHT22;32845;59.422;17.930;2023-04-01T16:47:53;4.30;86.50
44695;DHT22;32845;59.422;17.930;2023-04-01T17:02:20;4.00;90.80
44695;DHT22;32845;59.422;17.930;2023-04-01T17:07:01;3.80;91.30
44695;DHT22;32845;59.422;17.930;2023-04-01T17:30:55;3.20;92.60
44695;DHT22;32845;59.422;17.930;2023-04-01T17:40:13;2.90;93.10
44695;DHT22;32845;59.422;17.930;2023-04-01T18:04:08;2.20;93.30
44695;DHT22;32845;59.422;17.930;2023-04-01T18:09:01;2.10;93.70
44695;DHT22;32845;59.422;17.930;2023-04-01T18:14:03;1.90;93.80
44695;DHT22;32845;59.422;17.930;2023-04-01T18:23:47;1.70;94.80
44695;DHT22;32845;59.422;17.930;2023-04-01T18:33:26;1.60;95.80
44695;DHT22;32845;59.422;17.930;2023-04-01T18:38:20;1.50;96.00
44695;DHT22;32845;59.422;17.930;2023-04-01T18:43:08;1.40;96.00
44695;DHT22;32845;59.422;17.930;2023-04-01T18:52:45;1.40;97.10
44695;DHT22;32845;59.422;17.930;2023-04-01T18:57:19;1.30;97.60
44695;DHT22;32845;59.422;17.930;2023-04-01T19:06:35;1.10;98.50
44695;DHT22;32845;59.422;17.930;2023-04-01T19:20:59;0.90;99.90
44695;DHT22;32845;59.422;17.930;2023-04-01T19:25:35;0.80;99.90
44695;DHT22;32845;59.422;17.930;2023-04-01T19:44:44;0.60;99.90
44695;DHT22;32845;59.422;17.930;2023-04-01T20:03:55;0.40;99.90
44695;DHT22;32845;59.422;17.930;2023-04-01T20:18:26;0.20;99.90
44695;DHT22;32845;59.422;17.930;2023-04-01T20:27:49;0.20;99.90
44695;DHT22;32845;59.422;17.930;2023-04-01T20:47:06;-0.10;99.90
44695;DHT22;32845;59.422;17.930;2023-04-01T20:52:35;-0.20;99.90
44695;DHT22;32845;59.422;17.930;2023-04-01T21:02:05;-0.20;99.90
44695;DHT22;32845;59.422;17.930;2023-04-01T21:06:44;-0.30;99.90
44695;DHT22;32845;59.422;17.930;2023-04-01T21:11:43;-0.30;99.90
44695;DHT22;32845;59.422;17.930;2023-04-01T21:16:44;-0.40;99.90
44695;DHT22;32845;59.422;17.930;2023-04-01T21:45:27;-0.60;99.90
44695;DHT22;32845;59.422;17.930;2023-04-01T21:50:42;-0.60;99.90
44695;DHT22;32845;59.422;17.930;2023-04-01T22:10:03;-0.80;99.90
44695;DHT22;32845;59.422;17.930;2023-04-01T22:14:48;-0.80;99.90
44695;DHT22;32845;59.422;17.930;2023-04-01T22:34:40;-0.90;99.90
44695;DHT22;32845;59.422;17.930;2023-04-01T22:44:02;-1.00;99.90
44695;DHT22;32845;59.422;17.930;2023-04-01T22:53:32;-1.10;99.90
44695;DHT22;32845;59.422;17.930;2023-04-01T22:58:24;-1.10;99.90
44695;DHT22;32845;59.422;17.930;2023-04-01T23:12:24;-1.20;99.90
44695;DHT22;32845;59.422;17.930;2023-04-01T23:22:21;-1.30;99.90
44695;DHT22;32845;59.422;17.930;2023-04-01T23:26:59;-1.30;99.90
44695;DHT22;32845;59.422;17.930;2023-04-01T23:32:03;-1.40;99.90
44695;DHT22;32845;59.422;17.930;2023-04-01T23:36:38;-1.40;99.90
44695;DHT22;32845;59.422;17.930;2023-04-01T23:41:23;-1.40;99.90
44695;DHT22;32845;59.422;17.930;2023-04-01T23:45:56;-1.50;99.90
44695;DHT22;32845;59.422;17.930;2023-04-01T23:50:27;-1.60;99.90
44695;DHT22;32845;59.422;17.930;2023-04-01T23:55:08;-1.60;99.90
44695;DHT22;32845;59.422;17.930;2023-04-01T23:59:42;-1.70;99.90
